Flight Track Log - Related Links

Times and Time Zones

All times are in EDT time to prevent confusion due to time zone crossing. See the NLI239 flight status page for this flight to view local times or setup timezone preferences in your user account.

Time Position Orientation Groundspeed Altitude Reporting Facility
EDT Latitude Longitude Course Direction KTS MPH feet Rate Location/Type
Fri 02:40:41 PM 52.2667 -114.0167 321° Northwest 170 196 8,300  Level Edmonton Center
Fri 02:41:41 PM 52.3000 -114.0167 360° North 170 196 10,600 2,150 Climbing Edmonton Center
Fri 02:42:41 PM 52.3333 -114.0500 329° Northwest 180 207 12,600 1,900 Climbing Edmonton Center
Fri 02:43:41 PM 52.3833 -114.1000 329° Northwest 180 207 14,400 1,750 Climbing Edmonton Center
Fri 02:44:00 PM 52.5141 -114.1561 333° Northwest  Level FlightAware Approximate
Fri 02:44:41 PM 52.4333 -114.1333 338° Northwest 180 207 16,100  Level Edmonton Center
Fri 02:45:00 PM 52.5717 -114.2033 338° Northwest  Level FlightAware Approximate
Fri 02:45:41 PM 52.4833 -114.1667 338° Northwest 190 219 17,800  Level Edmonton Center
Fri 02:46:41 PM 52.5333 -114.2000 338° Northwest 180 207 18,800 1,200 Climbing Edmonton Center
Fri 02:47:41 PM 52.5833 -114.2500 329° Northwest 190 219 20,200 1,350 Climbing Edmonton Center
Fri 02:48:41 PM 52.6333 -114.2833 338° Northwest 180 207 21,500 1,200 Climbing Edmonton Center
Fri 02:49:41 PM 52.6667 -114.3167 329° Northwest 180 207 22,600 1,050 Climbing Edmonton Center
Fri 02:50:41 PM 52.7000 -114.3667 318° Northwest 180 207 23,600 700 Climbing Edmonton Center
Fri 02:51:41 PM 52.7500 -114.4000 338° Northwest 190 219 24,000 200 Climbing Edmonton Center
Fri 02:52:41 PM 52.8167 -114.4333 343° North 220 253 24,000  Level Edmonton Center
Fri 02:53:41 PM 52.8833 -114.5167 323° Northwest 230 265 24,000  Level Edmonton Center
Fri 02:54:41 PM 52.9500 -114.5500 343° North 240 276 24,000  Level Edmonton Center
Fri 02:55:41 PM 53.0000 -114.6000 329° Northwest 240 276 24,000  Level Edmonton Center
Fri 02:56:41 PM 53.0667 -114.6333 343° North 240 276 24,000  Level Edmonton Center
Fri 02:57:41 PM 53.1167 -114.7167 315° West 240 276 24,000  Level Edmonton Center
Fri 02:58:41 PM 53.1667 -114.7500 338° Northwest 240 276 24,000  Level Edmonton Center
Fri 02:59:41 PM 53.2333 -114.8000 336° Northwest 240 276 24,000  Level Edmonton Center
Fri 03:00:41 PM 53.3000 -114.8333 343° North 240 276 24,000  Level Edmonton Center
Fri 03:01:41 PM 53.3667 -114.9167 323° Northwest 240 276 24,000  Level Edmonton Center
Fri 03:02:41 PM 53.4167 -114.9500 338° Northwest 240 276 24,000  Level Edmonton Center
Fri 03:03:41 PM 53.4833 -115.0000 336° Northwest 240 276 24,000  Level Edmonton Center
Fri 03:04:41 PM 53.5333 -115.0333 338° Northwest 240 276 24,000  Level Edmonton Center
Fri 03:05:41 PM 53.6000 -115.1167 323° Northwest 240 276 24,000  Level Edmonton Center
Fri 03:06:41 PM 53.6667 -115.1500 343° North 240 276 24,000  Level Edmonton Center
Fri 03:07:41 PM 53.7167 -115.2000 329° Northwest 240 276 24,000  Level Edmonton Center
Fri 03:08:41 PM 53.7667 -115.2500 329° Northwest 240 276 24,000  Level Edmonton Center
Fri 03:09:41 PM 53.8333 -115.3167 329° Northwest 240 276 24,000  Level Edmonton Center
Fri 03:10:41 PM 53.9000 -115.3667 336° Northwest 240 276 24,000  Level Edmonton Center
Fri 03:11:41 PM 53.9667 -115.4167 336° Northwest 240 276 24,000  Level Edmonton Center
Fri 03:12:41 PM 54.0333 -115.4833 330° Northwest 240 276 24,000  Level Edmonton Center
Fri 03:13:41 PM 54.0833 -115.5333 330° Northwest 240 276 24,000  Level Edmonton Center
Fri 03:14:41 PM 54.1333 -115.5667 339° North 240 276 24,000  Level Edmonton Center
Fri 03:15:41 PM 54.2000 -115.6167 336° Northwest 240 276 24,000  Level Edmonton Center
Fri 03:16:41 PM 54.2667 -115.6667 336° Northwest 240 276 24,000  Level Edmonton Center
Fri 03:17:41 PM 54.3333 -115.7333 330° Northwest 230 265 24,000  Level Edmonton Center
Fri 03:18:41 PM 54.3667 -115.7833 319° Northwest 230 265 24,000  Level Edmonton Center
Fri 03:19:41 PM 54.4333 -115.8333 336° Northwest 230 265 24,000  Level Edmonton Center
Fri 03:20:41 PM 54.5000 -115.8833 336° Northwest 240 276 24,000  Level Edmonton Center
Fri 03:21:41 PM 54.5500 -115.9500 322° Northwest 240 276 24,000  Level Edmonton Center
Fri 03:22:41 PM 54.6167 -116.0000 337° Northwest 230 265 24,000  Level Edmonton Center
Fri 03:23:41 PM 54.6667 -116.0500 330° Northwest 230 265 24,000  Level Edmonton Center
Fri 03:24:41 PM 54.7333 -116.0833 344° North 240 276 24,000  Level Edmonton Center
Fri 03:25:41 PM 54.7833 -116.1667 316° Northwest 230 265 24,000  Level Edmonton Center
Fri 03:26:41 PM 54.8500 -116.2167 337° Northwest 230 265 24,000  Level Edmonton Center
Fri 03:27:41 PM 54.9167 -116.2500 344° North 250 288 24,000  Level Edmonton Center
Fri 03:28:41 PM 54.9667 -116.3000 330° Northwest 230 265 24,000  Level Edmonton Center
Fri 03:29:41 PM 55.0333 -116.3833 324° Northwest 250 288 24,000  Level Edmonton Center
Fri 03:30:41 PM 55.0833 -116.4333 330° Northwest 240 276 24,000  Level Edmonton Center
Fri 03:31:41 PM 55.1500 -116.4833 337° Northwest 240 276 24,000  Level Edmonton Center
Fri 03:32:41 PM 55.2167 -116.5333 337° Northwest 240 276 24,000  Level Edmonton Center
Fri 03:33:41 PM 55.2500 -116.6000 311° West 240 276 24,000 -150 Level Edmonton Center
Fri 03:34:41 PM 55.3167 -116.6500 337° Northwest 240 276 23,700 -1,050 Descending Edmonton Center
Fri 03:35:41 PM 55.4000 -116.7000 341° North 260 299 21,900 -1,750 Descending Edmonton Center
Fri 03:36:41 PM 55.4667 -116.7500 337° Northwest 280 322 20,200 -1,600 Descending Edmonton Center
Fri 03:37:41 PM 55.5333 -116.8167 330° Northwest 280 322 18,700 -1,450 Descending Edmonton Center
Fri 03:38:41 PM 55.6000 -116.8833 331° Northwest 280 322 17,300 -1,450 Descending Edmonton Center
Fri 03:39:41 PM 55.6833 -116.9500 336° Northwest 280 322 15,800 -1,550 Descending Edmonton Center
Fri 03:40:41 PM 55.7500 -117.0000 337° Northwest 270 311 14,200 -1,550 Descending Edmonton Center
Fri 03:41:41 PM 55.8167 -117.0500 337° Northwest 280 322 12,700 -1,550 Descending Edmonton Center
Fri 03:42:41 PM 55.8833 -117.1000 337° Northwest 280 322 11,100 -1,650 Descending Edmonton Center
Fri 03:43:41 PM 55.9500 -117.1500 337° Northwest 260 299 9,400 -1,600 Descending Edmonton Center
Fri 03:44:41 PM 56.0167 -117.2000 337° Northwest 250 288 7,900 -1,450 Descending Edmonton Center
Fri 03:45:41 PM 56.0833 -117.2500 337° Northwest 230 265 6,500 -900 Descending Edmonton Center
Fri 03:46:41 PM 56.1333 -117.3000 331° Northwest 230 265 6,100 -400 Descending Edmonton Center
Fri 03:48:00 PM 56.1935 -117.4102 331° Northwest  Level FlightAware Approximate
Fri 03:55:00 PM 56.2167 -117.4333 331° Northwest  Level FlightAware Approximate
Fri 03:56:00 PM 56.2269 -117.4472 331° Northwest  Level Estimated

Login

Don't have an account? Register now (free) for customized features, flight alerts, and more!